Oakgrove, Arkansas
Current Conditions -  °F | °C
As of 7:53 AM on Friday 31 Oct 2014 (Local Time) from KRUE Reporting Station
Clear Clear  
Wind Chill: 47°   Ceiling: Unl
Heat Index: 47°   Visibility: 10mi
Dew Point: 42°   Wind: 3mph
Humidity: 83%   Direction: 310°NW
Pressure: 30.2"   Gusts: NA
Location:  35.0362°N, 92.6967°W
Report Text: KRUE 311253Z AUTO 31003KT 10SM CLR 08/06 A3020 RMK AO2 SLP223 T00830056
Loading
Personal Weather Stations






























Interactive Weather Map
Tropical Storm Tracking
New forecast layout! Learn more

10-Day Weather Forecast

Advertisements
Track Severe Weather on mobile